This is the latest recevied weather packets stored in our database for station/object OK3FM-14. If no packets are shown the sender has not sent any weather packets the latest 10 day(s).
| Time | Temp. | Humidity | Pressure | Rain* | Wind** | Luminosity | Snow |
|---|---|---|---|---|---|---|---|
| 1788519473 | 23.89° C | 54% | 1016.9 hPa | - | - | - | - |
| 1788518273 | 23.33° C | 56% | 1017.1 hPa | - | - | - | - |
| 1788517672 | 23.89° C | 57% | 1017.4 hPa | - | - | - | - |
| 1788517078 | 23.33° C | 57% | 1017.5 hPa | - | - | - | - |
| 1788516466 | 22.78° C | 59% | 1017.8 hPa | - | - | - | - |
| 1788514666 | 22.22° C | 60% | 1018 hPa | - | - | - | - |
| 1788514066 | 22.22° C | 59% | 1018.1 hPa | - | - | - | - |
| 1788513466 | 22.22° C | 61% | 1018.3 hPa | - | - | - | - |
| 1788512866 | 22.22° C | 60% | 1018.3 hPa | - | - | - | - |
| 1788511066 | 21.67° C | 62% | 1018.6 hPa | - | - | - | - |
| 1788510466 | 21.11° C | 62% | 1018.8 hPa | - | - | - | - |
| 1788509866 | 21.11° C | 61% | 1018.8 hPa | - | - | - | - |
| 1788509266 | 21.67° C | 61% | 1018.8 hPa | - | - | - | - |
| 1788508066 | 21.67° C | 62% | 1018.8 hPa | - | - | - | - |
| 1788507466 | 20.56° C | 66% | 1018.9 hPa | - | - | - | - |
| 1788506266 | 19.44° C | 67% | 1019 hPa | - | - | - | - |
| 1788505666 | 19.44° C | 68% | 1018.8 hPa | - | - | - | - |
| 1788503866 | 20° C | 65% | 1019 hPa | - | - | - | - |
| 1788503266 | 21.11° C | 62% | 1019 hPa | - | - | - | - |
| 1788502666 | 20° C | 66% | 1019 hPa | - | - | - | - |
| 1788502066 | 18.89° C | 69% | 1019 hPa | - | - | - | - |
| 1788501466 | 17.78° C | 73% | 1019 hPa | - | - | - | - |
| 1788500866 | 17.78° C | 72% | 1019.2 hPa | - | - | - | - |
| 1788500266 | 18.33° C | 70% | 1019 hPa | - | - | - | - |
| 1788499666 | 17.22° C | 74% | 1019.1 hPa | - | - | - | - |
* Rain since midnight (hover to see other rain measurements)
** Current wind speed in m/s (hover to see current wind gust speed)